Time;durP1;ratioP1;P1;durP2;ratioP2;P2;SDS_P1;SDS_P2;PMS_P1;PMS_P2;Temp;Humidity;BMP_temperature;BMP_pressure;BME280_temperature;BME280_humidity;BME280_pressure;Samples;Min_cycle;Max_cycle;Signal;HPM_P1;HPM_P2
2023/09/24 00:00:15;;;;;;;6.50;4.30;;;12.10;99.90;;;;;;5031598;28;20470;-72
2023/09/24 00:02:42;;;;;;;7.73;4.67;;;12.00;99.90;;;;;;5035663;28;20469;-72
2023/09/24 00:05:09;;;;;;;10.23;4.80;;;11.90;99.90;;;;;;5028482;28;20939;-72
2023/09/24 00:07:36;;;;;;;11.37;4.93;;;11.80;99.90;;;;;;5036262;28;20453;-72
2023/09/24 00:10:05;;;;;;;9.17;4.20;;;11.80;99.90;;;;;;5035990;28;20446;-72
2023/09/24 00:12:31;;;;;;;5.50;4.40;;;11.70;99.90;;;;;;5034737;28;20473;-72
2023/09/24 00:14:58;;;;;;;8.93;4.50;;;11.70;99.90;;;;;;5035197;28;20534;-72
2023/09/24 00:17:25;;;;;;;10.43;4.40;;;11.70;99.90;;;;;;5035143;28;20454;-72
2023/09/24 00:19:52;;;;;;;7.63;4.03;;;11.70;99.90;;;;;;5036900;28;20453;-72
2023/09/24 00:22:18;;;;;;;7.37;4.73;;;11.70;99.90;;;;;;5034558;28;20462;-72
2023/09/24 00:24:46;;;;;;;8.50;4.13;;;11.70;99.90;;;;;;5034463;28;21152;-72
2023/09/24 00:27:14;;;;;;;6.10;4.03;;;11.70;99.90;;;;;;5034964;28;20511;-72
2023/09/24 00:29:41;;;;;;;8.10;3.87;;;11.70;99.90;;;;;;5036126;28;20529;-72
2023/09/24 00:32:07;;;;;;;7.67;4.47;;;11.60;99.90;;;;;;5040522;28;20481;-72
2023/09/24 00:34:34;;;;;;;5.53;4.43;;;11.60;99.90;;;;;;5034611;28;20481;-72
2023/09/24 00:37:01;;;;;;;5.33;4.10;;;11.50;99.90;;;;;;5034893;28;20423;-72
2023/09/24 00:39:27;;;;;;;5.57;3.93;;;11.50;99.90;;;;;;5034022;28;20997;-72
2023/09/24 00:41:55;;;;;;;5.73;4.60;;;11.50;99.90;;;;;;5033833;28;20464;-72
2023/09/24 00:44:23;;;;;;;8.20;3.80;;;11.50;99.90;;;;;;5033969;28;20453;-72
2023/09/24 00:46:50;;;;;;;6.70;3.80;;;11.50;99.90;;;;;;5035076;28;20453;-72
2023/09/24 00:49:17;;;;;;;7.23;4.00;;;11.40;99.90;;;;;;5032179;28;20935;-72
2023/09/24 00:51:44;;;;;;;7.73;4.50;;;11.40;99.90;;;;;;5034058;28;20987;-73
2023/09/24 00:54:12;;;;;;;5.00;4.50;;;11.30;99.90;;;;;;5033158;28;20539;-72
2023/09/24 00:56:39;;;;;;;5.13;4.13;;;11.30;99.90;;;;;;5034858;28;20463;-72
2023/09/24 00:59:08;;;;;;;6.40;4.23;;;11.30;99.90;;;;;;5033930;28;20454;-72
2023/09/24 01:01:36;;;;;;;5.63;4.20;;;11.20;99.90;;;;;;5032797;28;20456;-72
2023/09/24 01:04:05;;;;;;;7.73;4.20;;;11.20;99.90;;;;;;5032787;28;20649;-72
2023/09/24 01:06:33;;;;;;;5.37;4.87;;;11.20;99.90;;;;;;5033216;28;20503;-72
2023/09/24 01:09:00;;;;;;;5.37;4.40;;;11.20;99.90;;;;;;5033102;28;20472;-72
2023/09/24 01:11:31;;;;;;;8.77;4.40;;;11.10;99.90;;;;;;5028853;28;20461;-72
2023/09/24 01:13:58;;;;;;;9.70;4.40;;;11.10;99.90;;;;;;5034018;28;20480;-72
2023/09/24 01:16:24;;;;;;;5.13;4.20;;;11.00;99.90;;;;;;5030958;28;20462;-72
2023/09/24 01:18:53;;;;;;;8.70;4.60;;;11.00;99.90;;;;;;5033527;28;20456;-72
2023/09/24 01:21:20;;;;;;;4.70;4.27;;;11.00;99.90;;;;;;5032550;28;20461;-72
2023/09/24 01:23:49;;;;;;;7.00;4.40;;;11.00;99.90;;;;;;5033369;28;20885;-72
2023/09/24 01:26:17;;;;;;;6.30;4.73;;;10.90;99.90;;;;;;5034547;28;20445;-72
2023/09/24 01:28:44;;;;;;;7.50;5.03;;;10.90;99.90;;;;;;5037873;28;20503;-72
2023/09/24 01:31:11;;;;;;;7.17;4.43;;;10.80;99.90;;;;;;5036129;28;20461;-72
2023/09/24 01:33:39;;;;;;;6.50;4.67;;;10.70;99.90;;;;;;5036556;28;20560;-72
2023/09/24 01:36:08;;;;;;;9.30;4.23;;;10.70;99.90;;;;;;5035872;28;20511;-72
2023/09/24 01:38:34;;;;;;;6.50;4.20;;;10.70;99.90;;;;;;5035990;28;20464;-72
2023/09/24 01:41:07;;;;;;;10.90;4.77;;;10.70;99.90;;;;;;5035906;28;20543;-72
2023/09/24 01:43:34;;;;;;;6.30;5.27;;;10.70;99.90;;;;;;5033773;28;20479;-72
2023/09/24 01:46:05;;;;;;;6.60;5.00;;;10.60;99.90;;;;;;5035927;28;20506;-72
2023/09/24 01:48:32;;;;;;;5.20;4.70;;;10.60;99.90;;;;;;5035616;28;20947;-72
2023/09/24 01:50:59;;;;;;;9.20;4.87;;;10.50;99.90;;;;;;5036177;28;20448;-72
2023/09/24 01:53:26;;;;;;;7.87;4.70;;;10.50;99.90;;;;;;5035988;28;20469;-72
2023/09/24 01:55:52;;;;;;;6.13;4.80;;;10.50;99.90;;;;;;5036490;28;20489;-72
2023/09/24 01:58:21;;;;;;;9.23;5.03;;;10.50;99.90;;;;;;5035046;28;20548;-72
2023/09/24 02:00:48;;;;;;;8.17;4.77;;;10.40;99.90;;;;;;5035618;28;20449;-72
2023/09/24 02:03:15;;;;;;;8.07;5.30;;;10.40;99.90;;;;;;5034415;28;20485;-72
2023/09/24 02:05:42;;;;;;;13.40;5.27;;;10.30;99.90;;;;;;5035530;28;20456;-72
2023/09/24 02:08:10;;;;;;;5.40;4.50;;;10.30;99.90;;;;;;5027951;28;20481;-72
2023/09/24 02:10:39;;;;;;;8.73;5.10;;;10.30;99.90;;;;;;5035093;28;20452;-72
2023/09/24 02:13:06;;;;;;;6.20;4.80;;;10.30;99.90;;;;;;5034255;28;20517;-72
2023/09/24 02:15:34;;;;;;;7.73;5.37;;;10.30;99.90;;;;;;5034408;28;20496;-72
2023/09/24 02:18:04;;;;;;;9.10;5.37;;;10.30;99.90;;;;;;5034852;28;20451;-72
2023/09/24 02:20:32;;;;;;;7.83;5.67;;;10.20;99.90;;;;;;5034574;28;20469;-72
2023/09/24 02:23:00;;;;;;;7.00;5.33;;;10.20;99.90;;;;;;5035243;28;20488;-72
2023/09/24 02:25:29;;;;;;;5.43;4.93;;;10.20;99.90;;;;;;5034797;28;20449;-72
2023/09/24 02:27:56;;;;;;;9.00;4.93;;;10.20;99.90;;;;;;5034413;28;20830;-72
2023/09/24 02:30:24;;;;;;;5.00;4.50;;;10.20;99.90;;;;;;5033670;28;20535;-72
2023/09/24 02:32:52;;;;;;;8.30;5.20;;;10.20;99.90;;;;;;5034328;28;20519;-72
2023/09/24 02:35:19;;;;;;;8.60;4.90;;;10.20;99.90;;;;;;5033978;28;20512;-72
2023/09/24 02:37:48;;;;;;;10.60;5.53;;;10.10;99.90;;;;;;5033060;28;20517;-72
2023/09/24 02:40:21;;;;;;;7.00;5.43;;;10.10;99.90;;;;;;5032914;28;20527;-72
2023/09/24 02:42:48;;;;;;;6.93;5.50;;;10.00;99.90;;;;;;5030602;28;20489;-72
2023/09/24 02:45:16;;;;;;;5.63;5.17;;;10.00;99.90;;;;;;5033744;28;20472;-72
2023/09/24 02:47:44;;;;;;;10.50;5.40;;;10.00;99.90;;;;;;5033929;28;20484;-72
2023/09/24 02:50:13;;;;;;;7.70;5.80;;;10.00;99.90;;;;;;5033381;28;20465;-72
2023/09/24 02:52:41;;;;;;;9.93;5.90;;;10.00;99.90;;;;;;5032909;28;21040;-72
2023/09/24 02:55:10;;;;;;;7.83;5.43;;;10.00;99.90;;;;;;5025706;28;20488;-72
2023/09/24 02:57:37;;;;;;;8.23;5.73;;;9.90;99.90;;;;;;5033060;28;20461;-72
2023/09/24 03:00:10;;;;;;;9.37;5.70;;;9.90;99.90;;;;;;5033328;28;20461;-72
2023/09/24 03:02:37;;;;;;;7.00;5.43;;;9.80;99.90;;;;;;5032985;28;20477;-72
2023/09/24 03:05:08;;;;;;;10.17;5.53;;;9.80;99.90;;;;;;5031817;28;20457;-72
2023/09/24 03:07:36;;;;;;;9.60;5.37;;;9.80;99.90;;;;;;5033710;28;20484;-72
2023/09/24 03:10:05;;;;;;;7.83;5.60;;;9.80;99.90;;;;;;5032704;28;20516;-72
2023/09/24 03:12:32;;;;;;;7.60;4.70;;;9.80;99.90;;;;;;5039185;28;20476;-72
2023/09/24 03:14:59;;;;;;;10.13;5.37;;;9.80;99.90;;;;;;5050180;28;20492;-72
2023/09/24 03:17:25;;;;;;;7.20;5.73;;;9.80;99.90;;;;;;5031195;28;20491;-72
2023/09/24 03:19:52;;;;;;;6.37;5.20;;;9.70;99.90;;;;;;5048767;28;20445;-72
2023/09/24 03:22:20;;;;;;;6.50;5.07;;;9.80;99.90;;;;;;5045764;28;20514;-72
2023/09/24 03:24:48;;;;;;;5.87;4.80;;;9.70;99.90;;;;;;5051905;28;20836;-72
2023/09/24 03:27:15;;;;;;;7.63;5.20;;;9.70;99.90;;;;;;5052248;28;20479;-72
2023/09/24 03:29:42;;;;;;;9.30;5.13;;;9.70;99.90;;;;;;5043827;28;20537;-72
2023/09/24 03:32:09;;;;;;;5.97;5.27;;;9.60;99.90;;;;;;5043625;28;20551;-72
2023/09/24 03:34:36;;;;;;;7.83;4.73;;;9.60;99.90;;;;;;5049635;28;20534;-72
2023/09/24 03:37:02;;;;;;;11.93;5.90;;;9.60;99.90;;;;;;5051632;28;20453;-72
2023/09/24 03:39:29;;;;;;;8.80;5.47;;;9.60;99.90;;;;;;5044781;28;20460;-72
2023/09/24 03:41:57;;;;;;;8.63;5.10;;;9.50;99.90;;;;;;5046389;28;20892;-72
2023/09/24 03:44:24;;;;;;;7.40;5.27;;;9.50;99.90;;;;;;5044579;28;20506;-72
2023/09/24 03:46:50;;;;;;;6.27;5.20;;;9.50;99.90;;;;;;5043399;28;20553;-72
2023/09/24 03:49:17;;;;;;;8.43;5.53;;;9.50;99.90;;;;;;5051220;28;20937;-72
2023/09/24 03:51:43;;;;;;;6.83;5.50;;;9.40;99.90;;;;;;5050682;28;20534;-72
2023/09/24 03:54:11;;;;;;;6.20;5.40;;;9.40;99.90;;;;;;5042808;28;20514;-72
2023/09/24 03:56:39;;;;;;;6.17;5.20;;;9.40;99.90;;;;;;5050565;28;20955;-72
2023/09/24 03:59:07;;;;;;;9.53;5.60;;;9.40;99.90;;;;;;5050272;28;20473;-72
2023/09/24 04:01:33;;;;;;;7.73;6.13;;;9.40;99.90;;;;;;5045442;28;20457;-72
2023/09/24 04:04:02;;;;;;;11.63;5.70;;;9.40;99.90;;;;;;5042753;28;20958;-72
2023/09/24 04:06:28;;;;;;;9.47;5.40;;;9.40;99.90;;;;;;5047816;28;20447;-72
2023/09/24 04:08:55;;;;;;;8.20;5.80;;;9.40;99.90;;;;;;5049570;28;20455;-72
2023/09/24 04:11:22;;;;;;;10.30;5.57;;;9.50;99.90;;;;;;5049863;28;20452;-72
2023/09/24 04:13:48;;;;;;;9.33;5.57;;;9.50;99.90;;;;;;5042822;28;20849;-72
2023/09/24 04:16:16;;;;;;;9.30;6.80;;;9.50;99.90;;;;;;5046568;28;20476;-72
2023/09/24 04:18:44;;;;;;;16.30;9.07;;;9.60;99.90;;;;;;5049835;28;20467;-72
2023/09/24 04:21:17;;;;;;;18.13;11.50;;;9.60;99.90;;;;;;5048929;28;20450;-72
2023/09/24 04:23:45;;;;;;;10.90;8.83;;;9.60;99.90;;;;;;5049299;28;20460;-72
2023/09/24 04:26:20;;;;;;;12.60;9.50;;;9.60;99.90;;;;;;5047780;28;20452;-72
2023/09/24 04:28:46;;;;;;;15.63;11.03;;;9.60;99.90;;;;;;5046201;28;20459;-72
2023/09/24 04:31:13;;;;;;;21.17;10.00;;;9.60;99.90;;;;;;5034218;28;20448;-72
2023/09/24 04:33:41;;;;;;;13.70;10.33;;;9.60;99.90;;;;;;5044907;28;20864;-72
2023/09/24 04:36:09;;;;;;;15.20;9.67;;;9.50;99.90;;;;;;5049303;28;20547;-72
2023/09/24 04:38:36;;;;;;;15.23;10.40;;;9.60;99.90;;;;;;5049486;28;20491;-72
2023/09/24 04:41:03;;;;;;;13.10;9.00;;;9.50;99.90;;;;;;5043501;28;21079;-72
2023/09/24 04:43:29;;;;;;;18.40;10.23;;;9.50;99.90;;;;;;5045009;28;20480;-72
2023/09/24 04:45:56;;;;;;;30.10;10.10;;;9.50;99.90;;;;;;5047219;28;20464;-72
2023/09/24 04:48:23;;;;;;;33.53;9.83;;;9.50;99.90;;;;;;5048301;28;20444;-72
2023/09/24 04:50:55;;;;;;;26.90;10.43;;;9.40;99.90;;;;;;5040874;28;20472;-72
2023/09/24 04:53:22;;;;;;;14.80;9.00;;;9.40;99.90;;;;;;5042583;28;20467;-72
2023/09/24 04:55:49;;;;;;;23.47;10.60;;;9.30;99.90;;;;;;5047702;28;20587;-72
2023/09/24 04:58:15;;;;;;;47.27;11.07;;;9.20;99.90;;;;;;5038917;28;20452;-72
2023/09/24 05:00:42;;;;;;;19.10;10.57;;;9.20;99.90;;;;;;5044903;28;22380;-72
2023/09/24 05:03:09;;;;;;;29.77;10.40;;;9.30;99.90;;;;;;5040181;28;20544;-72
2023/09/24 05:05:34;;;;;;;17.37;10.20;;;9.30;99.90;;;;;;5044781;28;20506;-72
2023/09/24 05:08:04;;;;;;;16.87;10.33;;;9.30;99.90;;;;;;5047138;28;20444;-72
2023/09/24 05:10:31;;;;;;;24.83;10.40;;;9.40;99.90;;;;;;5048137;28;20252;-71
2023/09/24 05:12:58;;;;;;;16.50;10.13;;;9.40;99.90;;;;;;5046553;28;20480;-70
2023/09/24 05:15:24;;;;;;;26.90;10.23;;;9.40;99.90;;;;;;5044199;28;20519;-70
2023/09/24 05:17:51;;;;;;;25.63;11.10;;;9.40;99.90;;;;;;5032573;28;20515;-71
2023/09/24 05:20:18;;;;;;;20.07;11.97;;;9.30;99.90;;;;;;5032760;28;20443;-71
2023/09/24 05:22:44;;;;;;;23.53;11.70;;;9.40;99.90;;;;;;5032097;28;20465;-73
2023/09/24 05:25:12;;;;;;;14.83;10.23;;;9.40;99.90;;;;;;5034670;28;20458;-73
2023/09/24 05:27:39;;;;;;;24.37;10.67;;;9.40;99.90;;;;;;5047814;28;20460;-72
2023/09/24 05:30:07;;;;;;;20.20;11.33;;;9.40;99.90;;;;;;5045935;28;20445;-72
2023/09/24 05:32:34;;;;;;;36.93;11.87;;;9.40;99.90;;;;;;5047161;28;20464;-72
2023/09/24 05:35:01;;;;;;;19.70;11.63;;;9.30;99.90;;;;;;5045565;28;20448;-72
2023/09/24 05:37:28;;;;;;;37.50;10.20;;;9.30;99.90;;;;;;5038537;28;20937;-72
2023/09/24 05:39:55;;;;;;;35.30;10.07;;;9.30;99.90;;;;;;5045949;28;20507;-72
2023/09/24 05:42:23;;;;;;;64.77;10.23;;;9.20;99.90;;;;;;5038790;28;20507;-72
2023/09/24 05:44:50;;;;;;;133.03;11.93;;;9.10;99.90;;;;;;5043891;28;20448;-72
2023/09/24 05:47:16;;;;;;;81.20;10.53;;;9.10;99.90;;;;;;5040588;28;20505;-72
2023/09/24 05:49:43;;;;;;;55.10;10.50;;;9.00;99.90;;;;;;5047099;28;20863;-72
2023/09/24 05:52:09;;;;;;;99.50;11.03;;;9.00;99.90;;;;;;5045444;28;20476;-72
2023/09/24 05:54:36;;;;;;;93.13;10.83;;;9.00;99.90;;;;;;5047164;28;20448;-72
2023/09/24 05:57:03;;;;;;;52.17;10.33;;;9.00;99.90;;;;;;5045040;28;20496;-72
2023/09/24 05:59:31;;;;;;;164.40;12.30;;;9.00;99.90;;;;;;5041055;28;20456;-72
2023/09/24 06:01:58;;;;;;;117.97;11.43;;;8.80;99.90;;;;;;5037992;28;21069;-72
2023/09/24 06:04:25;;;;;;;63.70;9.53;;;8.80;99.90;;;;;;5046669;28;20942;-72
2023/09/24 06:06:52;;;;;;;107.77;10.07;;;8.70;99.90;;;;;;5045561;28;20444;-73
2023/09/24 06:09:19;;;;;;;64.20;8.40;;;8.70;99.90;;;;;;5046263;28;20444;-72
2023/09/24 06:11:47;;;;;;;80.07;7.93;;;8.60;99.90;;;;;;5045772;28;20503;-72
2023/09/24 06:14:13;;;;;;;49.50;7.60;;;8.50;99.90;;;;;;5048950;28;20533;-72
2023/09/24 06:16:41;;;;;;;33.63;8.67;;;8.50;99.90;;;;;;5044631;28;20483;-72
2023/09/24 06:19:08;;;;;;;19.90;7.63;;;8.50;99.90;;;;;;5046079;28;20521;-72
2023/09/24 06:21:35;;;;;;;18.80;7.10;;;8.70;99.90;;;;;;5049581;28;20490;-72
2023/09/24 06:24:01;;;;;;;23.20;7.60;;;8.80;99.90;;;;;;5047362;28;20448;-72
2023/09/24 06:26:30;;;;;;;18.30;6.93;;;8.90;99.90;;;;;;5049659;28;20503;-72
2023/09/24 06:28:57;;;;;;;33.43;7.20;;;9.10;99.90;;;;;;5046718;28;20527;-72
2023/09/24 06:31:23;;;;;;;10.57;7.23;;;9.20;99.90;;;;;;5031644;28;20502;-72
2023/09/24 06:33:51;;;;;;;41.37;7.20;;;9.20;99.90;;;;;;5033876;28;20842;-72
2023/09/24 06:36:18;;;;;;;25.03;6.83;;;9.20;99.90;;;;;;5048383;28;21058;-72
2023/09/24 06:38:46;;;;;;;22.27;6.70;;;9.10;99.90;;;;;;5048974;28;20456;-72
2023/09/24 06:41:13;;;;;;;17.37;6.87;;;9.20;99.90;;;;;;5040124;28;20962;-72
2023/09/24 06:43:40;;;;;;;11.97;7.07;;;9.20;99.90;;;;;;5045449;28;21011;-72
2023/09/24 06:46:06;;;;;;;22.80;7.40;;;9.30;99.90;;;;;;5040008;28;20457;-72
2023/09/24 06:48:33;;;;;;;24.07;7.23;;;9.40;99.90;;;;;;5048625;28;20457;-72
2023/09/24 06:51:08;;;;;;;17.30;7.20;;;9.50;99.90;;;;;;5039890;28;20556;-72
2023/09/24 06:53:35;;;;;;;15.60;6.53;;;9.50;99.90;;;;;;5048517;28;20456;-72
2023/09/24 06:56:05;;;;;;;7.50;6.70;;;9.70;99.90;;;;;;5046309;28;20491;-72
2023/09/24 06:58:32;;;;;;;8.53;6.23;;;9.90;99.90;;;;;;5038629;28;20452;-72
2023/09/24 07:01:00;;;;;;;6.40;5.70;;;9.90;99.90;;;;;;5039595;28;20462;-72
2023/09/24 07:03:26;;;;;;;7.67;5.73;;;10.00;99.90;;;;;;5041963;28;20881;-72
2023/09/24 07:05:53;;;;;;;12.70;6.27;;;10.10;99.90;;;;;;5046428;28;20991;-72
2023/09/24 07:08:21;;;;;;;9.70;7.00;;;10.30;99.90;;;;;;5045965;28;20468;-72
2023/09/24 07:11:27;;;;;;;22.63;6.80;;;10.50;99.90;;;;;;5046950;28;20887;-72
2023/09/24 07:13:54;;;;;;;11.70;7.20;;;10.60;99.90;;;;;;5044149;28;20452;-72
2023/09/24 07:16:23;;;;;;;18.63;6.90;;;10.60;99.90;;;;;;5040785;28;20488;-72
2023/09/24 07:18:50;;;;;;;8.70;6.47;;;10.70;99.90;;;;;;5039989;28;20530;-72
2023/09/24 07:21:18;;;;;;;8.60;6.73;;;10.70;99.90;;;;;;5042711;28;20461;-72
2023/09/24 07:23:47;;;;;;;8.93;7.87;;;10.80;99.90;;;;;;5037004;28;20978;-72
2023/09/24 07:26:14;;;;;;;8.97;5.77;;;11.00;99.90;;;;;;5041199;28;20819;-71
2023/09/24 07:28:40;;;;;;;7.63;5.80;;;11.10;99.90;;;;;;5047079;28;20535;-72
2023/09/24 07:31:13;;;;;;;7.50;6.60;;;11.20;99.90;;;;;;5044180;28;20836;-72
2023/09/24 07:33:42;;;;;;;6.43;5.77;;;11.60;99.90;;;;;;5047115;28;20559;-72
2023/09/24 07:36:08;;;;;;;5.30;4.80;;;12.30;99.90;;;;;;5041305;28;20493;-72
2023/09/24 07:38:36;;;;;;;5.53;5.03;;;12.90;99.90;;;;;;5046731;28;20445;-72
2023/09/24 07:41:04;;;;;;;6.77;6.10;;;13.40;99.90;;;;;;5035086;28;20539;-72
2023/09/24 07:43:31;;;;;;;6.60;6.00;;;13.60;99.90;;;;;;5041818;28;20468;-72
2023/09/24 07:45:58;;;;;;;7.80;5.30;;;13.80;99.90;;;;;;5044529;28;20539;-72
2023/09/24 07:48:24;;;;;;;7.57;5.77;;;14.10;99.90;;;;;;5045736;28;21028;-72
2023/09/24 07:50:53;;;;;;;8.50;5.97;;;14.50;99.90;;;;;;5044265;28;20798;-72
2023/09/24 07:53:22;;;;;;;5.83;4.83;;;14.80;99.90;;;;;;5045217;28;20548;-72
2023/09/24 07:55:54;;;;;;;5.23;4.73;;;15.00;99.90;;;;;;5039409;28;21026;-73
2023/09/24 07:58:23;;;;;;;6.87;5.20;;;15.40;99.90;;;;;;5041673;28;20442;-73
2023/09/24 08:00:49;;;;;;;5.70;5.20;;;15.60;99.90;;;;;;5044836;28;20415;-73
2023/09/24 08:03:16;;;;;;;6.23;5.17;;;15.90;99.90;;;;;;5042349;28;20502;-72
2023/09/24 08:05:43;;;;;;;7.53;5.57;;;16.10;99.90;;;;;;5039213;28;20440;-72
2023/09/24 08:08:10;;;;;;;6.80;5.37;;;16.30;99.90;;;;;;5042193;28;20416;-72
2023/09/24 08:10:37;;;;;;;7.80;5.83;;;16.00;99.90;;;;;;5034664;28;20449;-72
2023/09/24 08:13:04;;;;;;;6.53;5.30;;;15.90;99.90;;;;;;5036531;28;20507;-72
2023/09/24 08:15:32;;;;;;;10.83;6.00;;;15.80;99.90;;;;;;5036352;28;20453;-72
2023/09/24 08:17:59;;;;;;;6.20;5.67;;;15.80;99.90;;;;;;5037701;28;20462;-72
2023/09/24 08:20:26;;;;;;;6.87;5.93;;;16.20;99.90;;;;;;5039764;28;20530;-72
2023/09/24 08:22:52;;;;;;;7.50;5.47;;;16.60;99.90;;;;;;5036298;28;20502;-72
2023/09/24 08:25:19;;;;;;;8.80;6.43;;;16.80;99.90;;;;;;5043144;28;20445;-74
2023/09/24 08:27:46;;;;;;;10.27;5.93;;;17.20;99.90;;;;;;5041453;28;20435;-73
2023/09/24 08:30:12;;;;;;;6.30;5.70;;;17.60;99.90;;;;;;5042114;28;20445;-74
2023/09/24 08:32:41;;;;;;;7.00;5.70;;;17.90;99.90;;;;;;5038663;28;20975;-74
2023/09/24 08:35:08;;;;;;;7.70;5.73;;;18.20;99.90;;;;;;5040654;28;20480;-71
2023/09/24 08:37:35;;;;;;;9.13;5.87;;;18.20;99.90;;;;;;5036529;28;20493;-72
2023/09/24 08:40:01;;;;;;;9.40;6.70;;;18.40;99.90;;;;;;5039247;28;20446;-75
2023/09/24 08:42:28;;;;;;;6.03;5.43;;;18.50;99.90;;;;;;5037532;28;20491;-75
2023/09/24 08:45:04;;;;;;;7.90;5.90;;;18.60;99.90;;;;;;5036280;28;20453;-74
2023/09/24 08:47:33;;;;;;;6.47;5.87;;;18.50;99.90;;;;;;5041640;28;20523;-74
2023/09/24 08:50:03;;;;;;;7.93;6.17;;;18.60;99.90;;;;;;5041646;28;20957;-74
2023/09/24 08:52:31;;;;;;;8.93;6.70;;;18.30;99.90;;;;;;5038273;28;20973;-75
2023/09/24 08:55:00;;;;;;;9.47;7.00;;;18.30;99.90;;;;;;5037917;28;20519;-75
2023/09/24 08:57:26;;;;;;;7.93;6.17;;;18.50;99.90;;;;;;5042928;28;20515;-76
2023/09/24 08:59:53;;;;;;;8.17;6.20;;;18.60;99.90;;;;;;5041837;28;20460;-77
2023/09/24 09:02:20;;;;;;;7.90;5.57;;;18.60;99.90;;;;;;5041595;28;20523;-74
2023/09/24 09:04:50;;;;;;;7.97;5.80;;;18.60;99.90;;;;;;5042648;28;20452;-74
2023/09/24 09:07:18;;;;;;;8.10;5.30;;;18.50;99.90;;;;;;5041075;28;20453;-74
2023/09/24 09:09:54;;;;;;;7.63;6.60;;;18.50;99.90;;;;;;5038293;28;20454;-74
2023/09/24 09:12:20;;;;;;;7.20;5.67;;;18.60;99.90;;;;;;5040448;28;20487;-74
2023/09/24 09:14:47;;;;;;;7.10;5.00;;;18.80;99.90;;;;;;5039078;28;20763;-72
2023/09/24 09:17:14;;;;;;;10.13;5.23;;;19.30;99.90;;;;;;5035180;28;20998;-73
2023/09/24 09:19:49;;;;;;;7.37;5.30;;;19.60;99.90;;;;;;5043211;28;20514;-73
2023/09/24 09:22:21;;;;;;;8.33;4.70;;;19.80;99.90;;;;;;5037446;28;20487;-73
2023/09/24 09:24:50;;;;;;;6.10;4.90;;;20.00;99.90;;;;;;5041942;28;20503;-73
2023/09/24 09:27:17;;;;;;;5.43;4.20;;;20.40;99.90;;;;;;5039800;28;20496;-73
2023/09/24 09:29:43;;;;;;;9.10;4.70;;;20.30;99.90;;;;;;5042304;28;20449;-74
2023/09/24 09:32:10;;;;;;;5.93;4.50;;;20.50;99.90;;;;;;5038826;28;20481;-74
2023/09/24 09:34:37;;;;;;;9.27;4.33;;;20.80;99.90;;;;;;5034973;28;20467;-73
2023/09/24 09:37:17;;;;;;;6.60;4.20;;;20.80;99.90;;;;;;5039385;28;20488;-73
2023/09/24 09:39:45;;;;;;;7.40;4.20;;;20.50;99.90;;;;;;5038507;28;20476;-73
2023/09/24 09:42:19;;;;;;;5.43;3.57;;;20.40;99.90;;;;;;5038634;28;20560;-74
2023/09/24 09:44:47;;;;;;;6.20;4.00;;;20.50;99.90;;;;;;5039292;28;21020;-74
2023/09/24 09:47:18;;;;;;;8.07;4.00;;;20.20;99.90;;;;;;5036260;28;20453;-73
2023/09/24 09:49:49;;;;;;;5.47;3.67;;;20.30;99.90;;;;;;5045894;28;20505;-73
2023/09/24 09:52:20;;;;;;;6.77;4.40;;;20.30;99.90;;;;;;5040036;28;20500;-73
2023/09/24 09:54:55;;;;;;;6.83;4.30;;;20.50;99.90;;;;;;5041058;28;20460;-74
2023/09/24 09:57:24;;;;;;;6.97;5.27;;;20.20;99.90;;;;;;5041425;28;21018;-75
2023/09/24 09:59:53;;;;;;;8.50;4.30;;;20.20;99.90;;;;;;5042068;28;20456;-75
2023/09/24 10:02:20;;;;;;;7.33;4.20;;;20.20;99.90;;;;;;5044071;28;20540;-75
2023/09/24 10:04:47;;;;;;;6.03;4.10;;;20.10;99.90;;;;;;5044771;28;20452;-75
2023/09/24 10:07:14;;;;;;;7.03;4.17;;;20.20;99.90;;;;;;5041200;28;20445;-75
2023/09/24 10:09:41;;;;;;;8.40;3.77;;;20.30;99.90;;;;;;5044945;28;20492;-74
2023/09/24 10:12:09;;;;;;;5.27;3.83;;;20.50;99.90;;;;;;5037268;28;20477;-74
2023/09/24 10:14:37;;;;;;;10.60;3.33;;;20.30;99.90;;;;;;5042299;28;20440;-74
2023/09/24 10:17:24;;;;;;;6.00;3.17;;;20.40;99.90;;;;;;5042019;28;20865;-73
2023/09/24 10:19:51;;;;;;;6.57;3.23;;;20.30;99.90;;;;;;5041706;28;20445;-73
2023/09/24 10:22:26;;;;;;;8.60;3.87;;;20.30;99.90;;;;;;5041717;28;20934;-73
2023/09/24 10:24:53;;;;;;;8.97;4.37;;;20.40;99.90;;;;;;5043156;28;20493;-74
2023/09/24 10:27:30;;;;;;;8.20;3.73;;;20.60;99.90;;;;;;5042061;28;20449;-74
2023/09/24 10:30:04;;;;;;;7.80;4.13;;;20.60;99.90;;;;;;5042515;28;20903;-75
2023/09/24 10:32:51;;;;;;;5.10;3.43;;;20.40;99.90;;;;;;5038206;28;20461;-74
2023/09/24 10:35:19;;;;;;;3.90;2.53;;;20.60;99.90;;;;;;5037442;28;20453;-74
2023/09/24 10:38:05;;;;;;;4.50;2.90;;;20.40;99.90;;;;;;5043065;28;20575;-73
2023/09/24 10:40:33;;;;;;;5.60;3.30;;;20.20;99.90;;;;;;5040714;28;20548;-74
2023/09/24 10:43:15;;;;;;;4.03;2.60;;;20.30;99.90;;;;;;5036542;28;20535;-74
2023/09/24 10:45:42;;;;;;;5.93;2.57;;;20.40;99.90;;;;;;5040313;28;20527;-74
2023/09/24 10:48:09;;;;;;;4.17;2.70;;;20.50;99.90;;;;;;5036525;28;20449;-74
2023/09/24 10:50:39;;;;;;;5.20;3.00;;;20.50;99.90;;;;;;5042788;28;20479;-72
2023/09/24 10:53:06;;;;;;;3.20;2.90;;;20.30;99.90;;;;;;5040306;28;20495;-72
2023/09/24 10:55:36;;;;;;;3.83;3.10;;;20.00;99.90;;;;;;5042218;28;20489;-72
2023/09/24 10:58:05;;;;;;;4.20;3.10;;;20.20;99.90;;;;;;5039815;28;20592;-72
2023/09/24 11:00:34;;;;;;;4.43;2.70;;;20.30;99.90;;;;;;5043051;28;20441;-72
2023/09/24 11:03:03;;;;;;;3.47;3.03;;;20.30;99.90;;;;;;5041044;28;20595;-72
2023/09/24 11:05:34;;;;;;;4.93;2.47;;;20.50;99.90;;;;;;5041529;28;20536;-72
2023/09/24 11:08:00;;;;;;;5.10;2.77;;;20.80;99.90;;;;;;5040593;28;20988;-74
2023/09/24 11:10:28;;;;;;;3.07;2.40;;;20.90;99.90;;;;;;5040529;28;20457;-74
2023/09/24 11:12:56;;;;;;;6.00;2.80;;;20.60;99.90;;;;;;5039006;28;21018;-75
2023/09/24 11:15:24;;;;;;;6.00;2.53;;;20.80;99.90;;;;;;5040210;28;20877;-72
2023/09/24 11:17:53;;;;;;;4.50;2.77;;;20.90;99.90;;;;;;5033209;28;20481;-73
2023/09/24 11:20:21;;;;;;;5.53;2.80;;;21.20;99.90;;;;;;5039186;28;20508;-73
2023/09/24 11:22:57;;;;;;;7.43;2.60;;;21.30;99.90;;;;;;5038268;28;20476;-73
2023/09/24 11:25:24;;;;;;;5.93;2.10;;;21.20;99.90;;;;;;5037689;28;20530;-73
2023/09/24 11:27:53;;;;;;;6.97;2.30;;;21.20;99.90;;;;;;5038131;28;20440;-73
2023/09/24 11:30:21;;;;;;;4.33;2.40;;;21.20;99.90;;;;;;5037451;28;20454;-72
2023/09/24 11:32:49;;;;;;;7.60;2.63;;;21.00;99.90;;;;;;5036635;28;20506;-74
2023/09/24 11:35:18;;;;;;;3.17;2.17;;;21.10;99.90;;;;;;5036683;28;20453;-72
2023/09/24 11:37:53;;;;;;;2.67;2.43;;;20.90;99.90;;;;;;5040051;28;21010;-72
2023/09/24 11:40:23;;;;;;;2.50;2.10;;;20.80;99.90;;;;;;5035217;28;20950;-72
2023/09/24 11:42:51;;;;;;;4.10;2.50;;;21.00;99.90;;;;;;5033722;28;20476;-73
2023/09/24 11:45:33;;;;;;;5.40;2.33;;;21.20;99.90;;;;;;5038315;28;20457;-74
2023/09/24 11:47:59;;;;;;;1.83;1.73;;;21.10;99.90;;;;;;5037865;28;20808;-72
2023/09/24 11:50:27;;;;;;;3.83;2.10;;;20.90;99.90;;;;;;5038287;28;21140;-70
2023/09/24 11:52:54;;;;;;;4.30;1.80;;;20.80;99.90;;;;;;5028706;28;20469;-70
2023/09/24 11:55:21;;;;;;;4.43;1.90;;;20.70;99.90;;;;;;5034722;28;20862;-72
2023/09/24 11:57:47;;;;;;;2.70;2.10;;;20.90;99.90;;;;;;5036240;28;20545;-71
2023/09/24 12:00:15;;;;;;;3.20;2.10;;;21.10;99.90;;;;;;5037054;28;20549;-72
2023/09/24 12:02:41;;;;;;;2.93;1.90;;;21.10;99.90;;;;;;5039590;28;20477;-70
2023/09/24 12:05:08;;;;;;;5.27;2.07;;;21.20;99.90;;;;;;5032465;28;20875;-71
2023/09/24 12:07:37;;;;;;;2.33;1.70;;;21.90;99.90;;;;;;5039202;28;20467;-72
2023/09/24 12:10:04;;;;;;;8.50;2.20;;;22.20;99.90;;;;;;5037904;28;21052;-73
2023/09/24 12:12:31;;;;;;;3.77;1.93;;;21.80;99.90;;;;;;5037346;28;21194;-72
2023/09/24 12:14:57;;;;;;;4.53;1.70;;;21.40;99.90;;;;;;5037902;28;21001;-70
2023/09/24 12:17:24;;;;;;;8.97;2.20;;;21.30;99.90;;;;;;5036447;28;20489;-74
2023/09/24 12:19:52;;;;;;;2.57;2.00;;;21.30;99.90;;;;;;5040013;28;20444;-76
2023/09/24 12:22:20;;;;;;;3.20;2.00;;;21.50;99.90;;;;;;5042149;28;20473;-76
2023/09/24 12:24:48;;;;;;;8.03;3.27;;;21.50;99.90;;;;;;5037950;28;20957;-72
2023/09/24 12:27:15;;;;;;;17.67;9.07;;;21.70;99.90;;;;;;5040801;28;20453;-75
2023/09/24 12:29:42;;;;;;;3.83;2.20;;;21.70;99.90;;;;;;5040057;28;20457;-77
2023/09/24 12:32:08;;;;;;;12.67;5.50;;;21.70;99.90;;;;;;5044370;28;20547;-76
2023/09/24 12:34:35;;;;;;;5.73;2.50;;;21.60;99.90;;;;;;5039855;28;20453;-75
2023/09/24 12:37:02;;;;;;;9.53;3.30;;;21.40;99.90;;;;;;5038517;28;20988;-73
2023/09/24 12:39:28;;;;;;;3.20;1.80;;;21.40;99.90;;;;;;5036862;28;20854;-73
2023/09/24 12:41:57;;;;;;;5.53;1.90;;;21.30;99.90;;;;;;5034815;28;21166;-72
2023/09/24 12:44:23;;;;;;;15.70;9.60;;;21.30;99.90;;;;;;5033402;28;20453;-70
2023/09/24 12:46:50;;;;;;;3.70;2.20;;;21.40;99.90;;;;;;5037547;28;20544;-72
2023/09/24 12:49:17;;;;;;;4.80;2.43;;;21.50;99.90;;;;;;5038009;28;20445;-73